sensor_id;sensor_type;location;lat;lon;timestamp;P1;durP1;ratioP1;P2;durP2;ratioP2
72941;SDS011;69665;55.822;37.330;2023-07-02T00:01:01;10.60;;;6.95;;
72941;SDS011;69665;55.822;37.330;2023-07-02T00:03:45;11.60;;;6.70;;
72941;SDS011;69665;55.822;37.330;2023-07-02T00:06:30;9.48;;;6.60;;
72941;SDS011;69665;55.822;37.330;2023-07-02T00:09:16;10.00;;;5.93;;
72941;SDS011;69665;55.822;37.330;2023-07-02T00:11:59;12.50;;;6.60;;
72941;SDS011;69665;55.822;37.330;2023-07-02T00:14:44;11.85;;;6.68;;
72941;SDS011;69665;55.822;37.330;2023-07-02T00:17:32;10.50;;;6.93;;
72941;SDS011;69665;55.822;37.330;2023-07-02T00:20:16;14.07;;;6.55;;
72941;SDS011;69665;55.822;37.330;2023-07-02T00:23:01;9.25;;;6.00;;
72941;SDS011;69665;55.822;37.330;2023-07-02T00:25:46;11.00;;;6.65;;
72941;SDS011;69665;55.822;37.330;2023-07-02T00:28:30;10.10;;;6.72;;
72941;SDS011;69665;55.822;37.330;2023-07-02T00:31:14;11.98;;;7.35;;
72941;SDS011;69665;55.822;37.330;2023-07-02T00:33:59;8.88;;;5.97;;
72941;SDS011;69665;55.822;37.330;2023-07-02T00:36:46;12.90;;;7.22;;
72941;SDS011;69665;55.822;37.330;2023-07-02T00:39:30;10.50;;;6.68;;
72941;SDS011;69665;55.822;37.330;2023-07-02T00:42:14;12.27;;;6.45;;
72941;SDS011;69665;55.822;37.330;2023-07-02T00:45:00;14.88;;;6.65;;
72941;SDS011;69665;55.822;37.330;2023-07-02T00:47:47;11.25;;;6.32;;
72941;SDS011;69665;55.822;37.330;2023-07-02T00:50:50;11.57;;;6.18;;
72941;SDS011;69665;55.822;37.330;2023-07-02T00:53:34;10.88;;;6.63;;
72941;SDS011;69665;55.822;37.330;2023-07-02T00:56:18;10.88;;;6.32;;
72941;SDS011;69665;55.822;37.330;2023-07-02T00:59:03;13.23;;;7.40;;
72941;SDS011;69665;55.822;37.330;2023-07-02T01:01:47;12.80;;;7.82;;
72941;SDS011;69665;55.822;37.330;2023-07-02T01:04:33;14.60;;;8.63;;
72941;SDS011;69665;55.822;37.330;2023-07-02T01:07:17;15.43;;;10.20;;
72941;SDS011;69665;55.822;37.330;2023-07-02T01:10:02;15.95;;;9.50;;
72941;SDS011;69665;55.822;37.330;2023-07-02T01:12:46;14.77;;;8.93;;
72941;SDS011;69665;55.822;37.330;2023-07-02T01:15:32;15.70;;;8.82;;
72941;SDS011;69665;55.822;37.330;2023-07-02T01:18:16;12.73;;;8.00;;
72941;SDS011;69665;55.822;37.330;2023-07-02T01:21:00;12.05;;;7.45;;
72941;SDS011;69665;55.822;37.330;2023-07-02T01:23:45;11.50;;;7.25;;
72941;SDS011;69665;55.822;37.330;2023-07-02T01:26:31;12.57;;;7.30;;
72941;SDS011;69665;55.822;37.330;2023-07-02T01:29:20;12.25;;;7.38;;
72941;SDS011;69665;55.822;37.330;2023-07-02T01:32:04;11.73;;;6.95;;
72941;SDS011;69665;55.822;37.330;2023-07-02T01:34:49;11.95;;;6.88;;
72941;SDS011;69665;55.822;37.330;2023-07-02T01:37:33;11.15;;;6.32;;
72941;SDS011;69665;55.822;37.330;2023-07-02T01:40:21;9.52;;;6.78;;
72941;SDS011;69665;55.822;37.330;2023-07-02T01:43:05;10.65;;;6.90;;
72941;SDS011;69665;55.822;37.330;2023-07-02T01:45:49;9.52;;;5.72;;
72941;SDS011;69665;55.822;37.330;2023-07-02T01:48:33;11.32;;;6.75;;
72941;SDS011;69665;55.822;37.330;2023-07-02T01:51:36;10.98;;;6.57;;
72941;SDS011;69665;55.822;37.330;2023-07-02T01:54:22;11.48;;;6.40;;
72941;SDS011;69665;55.822;37.330;2023-07-02T01:57:08;11.85;;;6.95;;
72941;SDS011;69665;55.822;37.330;2023-07-02T01:59:52;12.20;;;7.13;;
72941;SDS011;69665;55.822;37.330;2023-07-02T02:02:36;11.10;;;6.50;;
72941;SDS011;69665;55.822;37.330;2023-07-02T02:05:20;10.85;;;6.95;;
72941;SDS011;69665;55.822;37.330;2023-07-02T02:08:04;9.90;;;5.70;;
72941;SDS011;69665;55.822;37.330;2023-07-02T02:10:48;8.85;;;6.10;;
72941;SDS011;69665;55.822;37.330;2023-07-02T02:13:32;11.88;;;6.70;;
72941;SDS011;69665;55.822;37.330;2023-07-02T02:16:16;12.15;;;6.63;;
72941;SDS011;69665;55.822;37.330;2023-07-02T02:19:01;11.60;;;5.65;;
72941;SDS011;69665;55.822;37.330;2023-07-02T02:21:45;12.30;;;6.32;;
72941;SDS011;69665;55.822;37.330;2023-07-02T02:24:29;8.73;;;6.07;;
72941;SDS011;69665;55.822;37.330;2023-07-02T02:27:13;11.35;;;5.78;;
72941;SDS011;69665;55.822;37.330;2023-07-02T02:30:00;9.05;;;5.18;;
72941;SDS011;69665;55.822;37.330;2023-07-02T02:32:44;8.52;;;6.10;;
72941;SDS011;69665;55.822;37.330;2023-07-02T02:35:28;7.78;;;5.30;;
72941;SDS011;69665;55.822;37.330;2023-07-02T02:38:31;9.05;;;5.47;;
72941;SDS011;69665;55.822;37.330;2023-07-02T02:41:16;8.65;;;5.38;;
72941;SDS011;69665;55.822;37.330;2023-07-02T02:44:00;8.35;;;5.38;;
72941;SDS011;69665;55.822;37.330;2023-07-02T02:46:44;9.25;;;5.35;;
72941;SDS011;69665;55.822;37.330;2023-07-02T02:52:50;11.05;;;5.13;;
72941;SDS011;69665;55.822;37.330;2023-07-02T02:55:37;8.48;;;4.75;;
72941;SDS011;69665;55.822;37.330;2023-07-02T02:58:21;7.75;;;5.18;;
72941;SDS011;69665;55.822;37.330;2023-07-02T03:01:06;10.13;;;5.47;;
72941;SDS011;69665;55.822;37.330;2023-07-02T03:03:54;8.27;;;5.20;;
72941;SDS011;69665;55.822;37.330;2023-07-02T03:06:39;9.38;;;5.07;;
72941;SDS011;69665;55.822;37.330;2023-07-02T03:09:22;9.40;;;5.68;;
72941;SDS011;69665;55.822;37.330;2023-07-02T03:12:07;9.82;;;4.63;;
72941;SDS011;69665;55.822;37.330;2023-07-02T03:14:51;9.57;;;5.20;;
72941;SDS011;69665;55.822;37.330;2023-07-02T03:17:38;7.47;;;4.93;;
72941;SDS011;69665;55.822;37.330;2023-07-02T03:20:22;9.38;;;5.15;;
72941;SDS011;69665;55.822;37.330;2023-07-02T03:23:06;8.20;;;4.85;;
72941;SDS011;69665;55.822;37.330;2023-07-02T03:25:50;11.07;;;5.28;;
72941;SDS011;69665;55.822;37.330;2023-07-02T03:28:34;8.52;;;4.72;;
72941;SDS011;69665;55.822;37.330;2023-07-02T03:31:37;9.32;;;5.25;;
72941;SDS011;69665;55.822;37.330;2023-07-02T03:34:22;8.50;;;4.93;;
72941;SDS011;69665;55.822;37.330;2023-07-02T03:37:07;9.32;;;4.82;;
72941;SDS011;69665;55.822;37.330;2023-07-02T03:39:52;7.88;;;4.68;;
72941;SDS011;69665;55.822;37.330;2023-07-02T03:42:36;9.60;;;4.65;;
72941;SDS011;69665;55.822;37.330;2023-07-02T03:45:20;8.20;;;4.80;;
72941;SDS011;69665;55.822;37.330;2023-07-02T03:48:05;7.03;;;4.07;;
72941;SDS011;69665;55.822;37.330;2023-07-02T03:50:49;6.85;;;3.60;;
72941;SDS011;69665;55.822;37.330;2023-07-02T03:53:33;6.47;;;3.97;;
72941;SDS011;69665;55.822;37.330;2023-07-02T03:56:17;6.95;;;4.10;;
72941;SDS011;69665;55.822;37.330;2023-07-02T03:59:01;8.13;;;4.45;;
72941;SDS011;69665;55.822;37.330;2023-07-02T04:01:46;10.48;;;4.22;;
72941;SDS011;69665;55.822;37.330;2023-07-02T04:04:30;9.63;;;4.20;;
72941;SDS011;69665;55.822;37.330;2023-07-02T04:07:14;6.00;;;4.20;;
72941;SDS011;69665;55.822;37.330;2023-07-02T04:10:01;7.03;;;3.85;;
72941;SDS011;69665;55.822;37.330;2023-07-02T04:12:45;13.93;;;3.97;;
72941;SDS011;69665;55.822;37.330;2023-07-02T04:15:30;6.85;;;3.78;;
72941;SDS011;69665;55.822;37.330;2023-07-02T04:18:14;6.35;;;4.00;;
72941;SDS011;69665;55.822;37.330;2023-07-02T04:20:58;7.35;;;3.97;;
72941;SDS011;69665;55.822;37.330;2023-07-02T04:27:04;6.95;;;3.95;;
72941;SDS011;69665;55.822;37.330;2023-07-02T04:30:08;6.95;;;3.63;;
72941;SDS011;69665;55.822;37.330;2023-07-02T04:33:12;7.35;;;4.22;;
72941;SDS011;69665;55.822;37.330;2023-07-02T04:36:02;7.72;;;4.03;;
72941;SDS011;69665;55.822;37.330;2023-07-02T04:38:46;6.22;;;3.50;;
72941;SDS011;69665;55.822;37.330;2023-07-02T04:41:30;6.82;;;4.00;;
72941;SDS011;69665;55.822;37.330;2023-07-02T04:44:16;7.10;;;4.40;;
72941;SDS011;69665;55.822;37.330;2023-07-02T04:47:01;6.70;;;3.97;;
72941;SDS011;69665;55.822;37.330;2023-07-02T04:49:46;6.10;;;3.67;;
72941;SDS011;69665;55.822;37.330;2023-07-02T04:52:30;7.25;;;3.95;;
72941;SDS011;69665;55.822;37.330;2023-07-02T04:55:14;6.75;;;3.92;;
72941;SDS011;69665;55.822;37.330;2023-07-02T04:58:01;6.30;;;3.88;;
72941;SDS011;69665;55.822;37.330;2023-07-02T05:00:45;6.28;;;4.10;;
72941;SDS011;69665;55.822;37.330;2023-07-02T05:03:29;7.10;;;3.88;;
72941;SDS011;69665;55.822;37.330;2023-07-02T05:06:13;7.00;;;3.85;;
72941;SDS011;69665;55.822;37.330;2023-07-02T05:09:01;8.30;;;3.75;;
72941;SDS011;69665;55.822;37.330;2023-07-02T05:11:45;6.38;;;3.90;;
72941;SDS011;69665;55.822;37.330;2023-07-02T05:14:29;7.60;;;3.90;;
72941;SDS011;69665;55.822;37.330;2023-07-02T05:20:37;6.53;;;3.90;;
72941;SDS011;69665;55.822;37.330;2023-07-02T05:23:21;5.80;;;3.67;;
72941;SDS011;69665;55.822;37.330;2023-07-02T05:26:05;6.25;;;3.80;;
72941;SDS011;69665;55.822;37.330;2023-07-02T05:28:49;7.68;;;3.72;;
72941;SDS011;69665;55.822;37.330;2023-07-02T05:31:33;6.53;;;3.53;;
72941;SDS011;69665;55.822;37.330;2023-07-02T05:34:18;5.63;;;3.70;;
72941;SDS011;69665;55.822;37.330;2023-07-02T05:37:02;6.68;;;4.05;;
72941;SDS011;69665;55.822;37.330;2023-07-02T05:39:46;9.77;;;4.25;;
72941;SDS011;69665;55.822;37.330;2023-07-02T05:42:31;7.38;;;3.60;;
72941;SDS011;69665;55.822;37.330;2023-07-02T05:45:15;5.63;;;3.50;;
72941;SDS011;69665;55.822;37.330;2023-07-02T05:47:59;6.35;;;4.15;;
72941;SDS011;69665;55.822;37.330;2023-07-02T05:50:44;5.80;;;3.67;;
72941;SDS011;69665;55.822;37.330;2023-07-02T05:53:28;6.82;;;3.50;;
72941;SDS011;69665;55.822;37.330;2023-07-02T05:56:12;6.13;;;3.90;;
72941;SDS011;69665;55.822;37.330;2023-07-02T05:58:56;6.35;;;3.72;;
72941;SDS011;69665;55.822;37.330;2023-07-02T06:01:59;7.70;;;3.80;;
72941;SDS011;69665;55.822;37.330;2023-07-02T06:05:03;6.13;;;3.58;;
72941;SDS011;69665;55.822;37.330;2023-07-02T06:07:47;7.20;;;3.60;;
72941;SDS011;69665;55.822;37.330;2023-07-02T06:10:31;6.32;;;3.65;;
72941;SDS011;69665;55.822;37.330;2023-07-02T06:13:16;7.10;;;3.33;;
72941;SDS011;69665;55.822;37.330;2023-07-02T06:16:00;6.28;;;4.18;;
72941;SDS011;69665;55.822;37.330;2023-07-02T06:18:44;6.88;;;3.85;;
72941;SDS011;69665;55.822;37.330;2023-07-02T06:21:29;6.25;;;3.60;;
72941;SDS011;69665;55.822;37.330;2023-07-02T06:24:33;7.45;;;3.70;;
72941;SDS011;69665;55.822;37.330;2023-07-02T06:27:17;6.28;;;3.47;;
72941;SDS011;69665;55.822;37.330;2023-07-02T06:30:01;7.60;;;4.25;;
72941;SDS011;69665;55.822;37.330;2023-07-02T06:32:45;6.00;;;3.83;;
72941;SDS011;69665;55.822;37.330;2023-07-02T06:35:29;6.25;;;3.83;;
72941;SDS011;69665;55.822;37.330;2023-07-02T06:38:13;8.07;;;3.88;;
72941;SDS011;69665;55.822;37.330;2023-07-02T06:40:58;5.53;;;3.60;;
72941;SDS011;69665;55.822;37.330;2023-07-02T06:43:42;6.85;;;3.72;;
72941;SDS011;69665;55.822;37.330;2023-07-02T06:46:27;6.70;;;3.63;;
72941;SDS011;69665;55.822;37.330;2023-07-02T06:52:33;7.35;;;3.90;;
72941;SDS011;69665;55.822;37.330;2023-07-02T06:55:18;6.65;;;3.72;;
72941;SDS011;69665;55.822;37.330;2023-07-02T06:58:02;6.72;;;3.97;;
72941;SDS011;69665;55.822;37.330;2023-07-02T07:00:48;5.68;;;3.08;;
72941;SDS011;69665;55.822;37.330;2023-07-02T07:03:33;6.65;;;4.07;;
72941;SDS011;69665;55.822;37.330;2023-07-02T07:06:17;7.22;;;3.47;;
72941;SDS011;69665;55.822;37.330;2023-07-02T07:09:01;6.35;;;3.70;;
72941;SDS011;69665;55.822;37.330;2023-07-02T07:12:04;7.45;;;3.40;;
72941;SDS011;69665;55.822;37.330;2023-07-02T07:14:49;6.43;;;3.80;;
72941;SDS011;69665;55.822;37.330;2023-07-02T07:17:33;6.70;;;3.42;;
72941;SDS011;69665;55.822;37.330;2023-07-02T07:20:17;7.88;;;3.78;;
72941;SDS011;69665;55.822;37.330;2023-07-02T07:23:02;7.63;;;4.03;;
72941;SDS011;69665;55.822;37.330;2023-07-02T07:25:47;8.25;;;3.65;;
72941;SDS011;69665;55.822;37.330;2023-07-02T07:28:31;6.78;;;3.97;;
72941;SDS011;69665;55.822;37.330;2023-07-02T07:31:15;6.22;;;3.60;;
72941;SDS011;69665;55.822;37.330;2023-07-02T07:33:59;6.93;;;3.60;;
72941;SDS011;69665;55.822;37.330;2023-07-02T07:36:43;5.72;;;3.40;;
72941;SDS011;69665;55.822;37.330;2023-07-02T07:39:28;8.65;;;4.22;;
72941;SDS011;69665;55.822;37.330;2023-07-02T07:42:13;6.65;;;3.55;;
72941;SDS011;69665;55.822;37.330;2023-07-02T07:44:59;7.65;;;3.67;;
72941;SDS011;69665;55.822;37.330;2023-07-02T07:47:43;6.22;;;3.22;;
72941;SDS011;69665;55.822;37.330;2023-07-02T07:50:27;6.30;;;3.08;;
72941;SDS011;69665;55.822;37.330;2023-07-02T07:53:12;5.15;;;2.90;;
72941;SDS011;69665;55.822;37.330;2023-07-02T07:55:56;5.95;;;3.20;;
72941;SDS011;69665;55.822;37.330;2023-07-02T07:58:40;5.97;;;2.85;;
72941;SDS011;69665;55.822;37.330;2023-07-02T08:01:43;5.53;;;2.90;;
72941;SDS011;69665;55.822;37.330;2023-07-02T08:04:27;6.65;;;3.40;;
72941;SDS011;69665;55.822;37.330;2023-07-02T08:07:11;6.68;;;3.22;;
72941;SDS011;69665;55.822;37.330;2023-07-02T08:10:14;5.30;;;3.20;;
72941;SDS011;69665;55.822;37.330;2023-07-02T08:12:59;5.93;;;3.03;;
72941;SDS011;69665;55.822;37.330;2023-07-02T08:15:43;5.93;;;2.97;;
72941;SDS011;69665;55.822;37.330;2023-07-02T08:18:27;6.47;;;3.80;;
72941;SDS011;69665;55.822;37.330;2023-07-02T08:21:11;7.10;;;3.33;;
72941;SDS011;69665;55.822;37.330;2023-07-02T08:23:55;8.27;;;3.60;;
72941;SDS011;69665;55.822;37.330;2023-07-02T08:26:41;8.02;;;3.70;;
72941;SDS011;69665;55.822;37.330;2023-07-02T08:29:25;6.10;;;3.33;;
72941;SDS011;69665;55.822;37.330;2023-07-02T08:32:09;6.20;;;3.30;;
72941;SDS011;69665;55.822;37.330;2023-07-02T08:34:53;8.13;;;3.42;;
72941;SDS011;69665;55.822;37.330;2023-07-02T08:37:37;6.47;;;3.65;;
72941;SDS011;69665;55.822;37.330;2023-07-02T08:40:21;8.13;;;3.13;;
72941;SDS011;69665;55.822;37.330;2023-07-02T08:43:06;6.95;;;3.40;;
72941;SDS011;69665;55.822;37.330;2023-07-02T08:45:50;8.90;;;2.97;;
72941;SDS011;69665;55.822;37.330;2023-07-02T08:48:54;5.70;;;2.80;;
72941;SDS011;69665;55.822;37.330;2023-07-02T08:55:03;6.82;;;2.72;;
72941;SDS011;69665;55.822;37.330;2023-07-02T08:57:52;5.65;;;3.25;;
72941;SDS011;69665;55.822;37.330;2023-07-02T09:00:37;6.43;;;3.15;;
72941;SDS011;69665;55.822;37.330;2023-07-02T09:03:21;5.47;;;3.40;;
72941;SDS011;69665;55.822;37.330;2023-07-02T09:06:06;6.10;;;3.50;;
72941;SDS011;69665;55.822;37.330;2023-07-02T09:08:51;7.25;;;2.90;;
72941;SDS011;69665;55.822;37.330;2023-07-02T09:11:35;5.97;;;3.22;;
72941;SDS011;69665;55.822;37.330;2023-07-02T09:14:31;6.40;;;4.25;;
72941;SDS011;69665;55.822;37.330;2023-07-02T09:17:15;5.63;;;3.15;;
72941;SDS011;69665;55.822;37.330;2023-07-02T09:20:00;7.13;;;3.50;;
72941;SDS011;69665;55.822;37.330;2023-07-02T09:22:54;7.05;;;3.70;;
72941;SDS011;69665;55.822;37.330;2023-07-02T09:25:39;7.72;;;3.45;;
72941;SDS011;69665;55.822;37.330;2023-07-02T09:28:25;5.78;;;2.97;;
72941;SDS011;69665;55.822;37.330;2023-07-02T09:31:28;5.53;;;2.88;;
72941;SDS011;69665;55.822;37.330;2023-07-02T09:34:12;7.40;;;3.83;;
72941;SDS011;69665;55.822;37.330;2023-07-02T09:36:57;8.77;;;3.72;;
72941;SDS011;69665;55.822;37.330;2023-07-02T09:39:47;6.25;;;2.95;;
72941;SDS011;69665;55.822;37.330;2023-07-02T09:42:38;7.10;;;3.47;;
72941;SDS011;69665;55.822;37.330;2023-07-02T09:45:23;8.20;;;3.50;;
72941;SDS011;69665;55.822;37.330;2023-07-02T09:48:08;6.82;;;3.67;;
72941;SDS011;69665;55.822;37.330;2023-07-02T09:50:53;6.65;;;3.67;;
72941;SDS011;69665;55.822;37.330;2023-07-02T09:53:38;9.30;;;3.40;;
72941;SDS011;69665;55.822;37.330;2023-07-02T09:56:42;5.90;;;3.10;;
72941;SDS011;69665;55.822;37.330;2023-07-02T09:59:33;7.10;;;3.45;;
72941;SDS011;69665;55.822;37.330;2023-07-02T10:02:17;6.60;;;3.22;;
72941;SDS011;69665;55.822;37.330;2023-07-02T10:05:01;8.40;;;3.80;;
72941;SDS011;69665;55.822;37.330;2023-07-02T10:07:46;8.43;;;3.30;;
72941;SDS011;69665;55.822;37.330;2023-07-02T10:10:31;6.95;;;3.88;;
72941;SDS011;69665;55.822;37.330;2023-07-02T10:13:16;5.82;;;3.05;;
72941;SDS011;69665;55.822;37.330;2023-07-02T10:16:10;7.97;;;3.47;;
72941;SDS011;69665;55.822;37.330;2023-07-02T10:18:55;5.40;;;2.95;;
72941;SDS011;69665;55.822;37.330;2023-07-02T10:21:39;8.45;;;3.30;;
72941;SDS011;69665;55.822;37.330;2023-07-02T10:24:23;6.35;;;3.25;;
72941;SDS011;69665;55.822;37.330;2023-07-02T10:27:07;6.72;;;2.92;;
72941;SDS011;69665;55.822;37.330;2023-07-02T10:29:52;6.40;;;2.95;;
72941;SDS011;69665;55.822;37.330;2023-07-02T10:32:37;7.10;;;3.40;;
72941;SDS011;69665;55.822;37.330;2023-07-02T10:35:22;6.75;;;3.10;;
72941;SDS011;69665;55.822;37.330;2023-07-02T10:38:13;8.10;;;3.42;;
72941;SDS011;69665;55.822;37.330;2023-07-02T10:41:00;8.50;;;5.28;;
72941;SDS011;69665;55.822;37.330;2023-07-02T10:43:44;12.73;;;6.95;;
72941;SDS011;69665;55.822;37.330;2023-07-02T10:46:28;7.80;;;3.17;;
72941;SDS011;69665;55.822;37.330;2023-07-02T10:49:13;6.75;;;2.78;;
72941;SDS011;69665;55.822;37.330;2023-07-02T10:52:17;6.32;;;2.85;;
72941;SDS011;69665;55.822;37.330;2023-07-02T10:55:20;7.38;;;2.53;;
72941;SDS011;69665;55.822;37.330;2023-07-02T10:58:06;7.47;;;3.28;;
72941;SDS011;69665;55.822;37.330;2023-07-02T11:00:52;7.95;;;3.22;;
72941;SDS011;69665;55.822;37.330;2023-07-02T11:03:35;8.77;;;3.20;;
72941;SDS011;69665;55.822;37.330;2023-07-02T11:06:20;6.75;;;2.80;;
72941;SDS011;69665;55.822;37.330;2023-07-02T11:09:14;6.22;;;2.63;;
72941;SDS011;69665;55.822;37.330;2023-07-02T11:12:00;10.80;;;4.50;;
72941;SDS011;69665;55.822;37.330;2023-07-02T11:14:44;6.60;;;2.80;;
72941;SDS011;69665;55.822;37.330;2023-07-02T11:17:29;7.70;;;2.45;;
72941;SDS011;69665;55.822;37.330;2023-07-02T11:20:14;6.65;;;3.22;;
72941;SDS011;69665;55.822;37.330;2023-07-02T11:22:59;8.35;;;2.72;;
72941;SDS011;69665;55.822;37.330;2023-07-02T11:25:53;6.88;;;2.95;;
72941;SDS011;69665;55.822;37.330;2023-07-02T11:28:48;8.32;;;3.60;;
72941;SDS011;69665;55.822;37.330;2023-07-02T11:31:34;6.22;;;3.05;;
72941;SDS011;69665;55.822;37.330;2023-07-02T11:34:19;6.90;;;3.15;;
72941;SDS011;69665;55.822;37.330;2023-07-02T11:39:49;8.65;;;2.92;;
72941;SDS011;69665;55.822;37.330;2023-07-02T11:42:33;7.05;;;2.90;;
72941;SDS011;69665;55.822;37.330;2023-07-02T11:45:17;4.65;;;2.67;;
72941;SDS011;69665;55.822;37.330;2023-07-02T11:48:02;6.57;;;2.72;;
72941;SDS011;69665;55.822;37.330;2023-07-02T11:50:46;6.90;;;3.03;;
72941;SDS011;69665;55.822;37.330;2023-07-02T11:53:30;6.80;;;3.03;;
72941;SDS011;69665;55.822;37.330;2023-07-02T11:56:33;6.75;;;3.35;;
72941;SDS011;69665;55.822;37.330;2023-07-02T11:59:17;5.88;;;2.72;;
72941;SDS011;69665;55.822;37.330;2023-07-02T12:02:01;7.53;;;3.25;;
72941;SDS011;69665;55.822;37.330;2023-07-02T12:04:46;7.15;;;2.80;;
72941;SDS011;69665;55.822;37.330;2023-07-02T12:07:30;6.57;;;3.13;;
72941;SDS011;69665;55.822;37.330;2023-07-02T12:10:14;7.72;;;3.67;;
72941;SDS011;69665;55.822;37.330;2023-07-02T12:12:59;6.97;;;3.30;;
72941;SDS011;69665;55.822;37.330;2023-07-02T12:15:43;6.35;;;3.33;;
72941;SDS011;69665;55.822;37.330;2023-07-02T12:18:28;8.35;;;3.13;;
72941;SDS011;69665;55.822;37.330;2023-07-02T12:21:12;9.70;;;3.47;;
72941;SDS011;69665;55.822;37.330;2023-07-02T12:23:56;7.55;;;3.30;;
72941;SDS011;69665;55.822;37.330;2023-07-02T12:26:40;6.93;;;3.10;;
72941;SDS011;69665;55.822;37.330;2023-07-02T12:29:45;6.63;;;3.22;;
72941;SDS011;69665;55.822;37.330;2023-07-02T12:32:30;7.50;;;3.30;;
72941;SDS011;69665;55.822;37.330;2023-07-02T12:35:14;6.53;;;3.30;;
72941;SDS011;69665;55.822;37.330;2023-07-02T12:38:01;7.97;;;3.15;;
72941;SDS011;69665;55.822;37.330;2023-07-02T12:40:47;6.90;;;3.25;;
72941;SDS011;69665;55.822;37.330;2023-07-02T12:43:32;8.38;;;3.00;;
72941;SDS011;69665;55.822;37.330;2023-07-02T12:46:16;7.65;;;3.42;;
72941;SDS011;69665;55.822;37.330;2023-07-02T12:49:01;8.38;;;3.78;;
72941;SDS011;69665;55.822;37.330;2023-07-02T12:51:45;8.20;;;3.40;;
72941;SDS011;69665;55.822;37.330;2023-07-02T12:54:29;8.13;;;2.88;;
72941;SDS011;69665;55.822;37.330;2023-07-02T12:57:34;6.30;;;2.92;;
72941;SDS011;69665;55.822;37.330;2023-07-02T13:00:18;7.38;;;2.90;;
72941;SDS011;69665;55.822;37.330;2023-07-02T13:03:02;8.43;;;3.10;;
72941;SDS011;69665;55.822;37.330;2023-07-02T13:05:46;6.22;;;3.10;;
72941;SDS011;69665;55.822;37.330;2023-07-02T13:08:49;8.57;;;3.70;;
72941;SDS011;69665;55.822;37.330;2023-07-02T13:11:33;9.20;;;3.50;;
72941;SDS011;69665;55.822;37.330;2023-07-02T13:14:17;8.02;;;3.33;;
72941;SDS011;69665;55.822;37.330;2023-07-02T13:17:02;9.00;;;3.50;;
72941;SDS011;69665;55.822;37.330;2023-07-02T13:19:49;7.45;;;3.35;;
72941;SDS011;69665;55.822;37.330;2023-07-02T13:22:33;7.50;;;3.28;;
72941;SDS011;69665;55.822;37.330;2023-07-02T13:25:17;8.50;;;3.67;;
72941;SDS011;69665;55.822;37.330;2023-07-02T13:28:02;6.68;;;3.35;;
72941;SDS011;69665;55.822;37.330;2023-07-02T13:30:46;7.93;;;3.58;;
72941;SDS011;69665;55.822;37.330;2023-07-02T13:33:30;7.05;;;3.00;;
72941;SDS011;69665;55.822;37.330;2023-07-02T13:36:15;7.55;;;3.35;;
72941;SDS011;69665;55.822;37.330;2023-07-02T13:39:02;6.07;;;3.35;;
72941;SDS011;69665;55.822;37.330;2023-07-02T13:41:50;8.50;;;3.47;;
72941;SDS011;69665;55.822;37.330;2023-07-02T13:44:34;6.55;;;3.60;;
72941;SDS011;69665;55.822;37.330;2023-07-02T13:47:18;7.32;;;3.42;;
72941;SDS011;69665;55.822;37.330;2023-07-02T13:50:03;8.43;;;3.42;;
72941;SDS011;69665;55.822;37.330;2023-07-02T13:52:48;9.02;;;4.18;;
72941;SDS011;69665;55.822;37.330;2023-07-02T13:55:33;8.93;;;3.47;;
72941;SDS011;69665;55.822;37.330;2023-07-02T13:58:17;8.45;;;3.63;;
72941;SDS011;69665;55.822;37.330;2023-07-02T14:01:20;8.32;;;3.60;;
72941;SDS011;69665;55.822;37.330;2023-07-02T14:04:04;8.52;;;4.15;;
72941;SDS011;69665;55.822;37.330;2023-07-02T14:06:49;7.90;;;3.25;;
72941;SDS011;69665;55.822;37.330;2023-07-02T14:09:52;8.73;;;4.30;;
72941;SDS011;69665;55.822;37.330;2023-07-02T14:12:36;8.02;;;4.25;;
72941;SDS011;69665;55.822;37.330;2023-07-02T14:15:20;8.95;;;3.97;;
72941;SDS011;69665;55.822;37.330;2023-07-02T14:18:07;6.15;;;3.30;;
72941;SDS011;69665;55.822;37.330;2023-07-02T14:21:09;8.25;;;3.97;;
72941;SDS011;69665;55.822;37.330;2023-07-02T14:23:57;8.50;;;3.65;;
72941;SDS011;69665;55.822;37.330;2023-07-02T14:26:42;9.38;;;4.03;;
72941;SDS011;69665;55.822;37.330;2023-07-02T14:29:27;10.13;;;4.07;;
72941;SDS011;69665;55.822;37.330;2023-07-02T14:32:11;8.65;;;4.25;;
72941;SDS011;69665;55.822;37.330;2023-07-02T14:35:04;15.55;;;5.40;;
72941;SDS011;69665;55.822;37.330;2023-07-02T14:37:48;14.20;;;6.35;;
72941;SDS011;69665;55.822;37.330;2023-07-02T14:40:35;11.23;;;4.95;;
72941;SDS011;69665;55.822;37.330;2023-07-02T14:43:19;32.60;;;12.07;;
72941;SDS011;69665;55.822;37.330;2023-07-02T14:46:05;7.53;;;3.40;;
72941;SDS011;69665;55.822;37.330;2023-07-02T14:48:52;9.65;;;4.05;;
72941;SDS011;69665;55.822;37.330;2023-07-02T14:51:36;10.20;;;4.55;;
72941;SDS011;69665;55.822;37.330;2023-07-02T14:54:20;7.80;;;3.72;;
72941;SDS011;69665;55.822;37.330;2023-07-02T14:57:04;12.45;;;6.47;;
72941;SDS011;69665;55.822;37.330;2023-07-02T14:59:49;10.40;;;4.45;;
72941;SDS011;69665;55.822;37.330;2023-07-02T15:02:33;6.60;;;3.38;;
72941;SDS011;69665;55.822;37.330;2023-07-02T15:05:36;6.63;;;3.25;;
72941;SDS011;69665;55.822;37.330;2023-07-02T15:08:21;7.90;;;3.95;;
72941;SDS011;69665;55.822;37.330;2023-07-02T15:11:06;10.90;;;4.63;;
72941;SDS011;69665;55.822;37.330;2023-07-02T15:14:10;8.90;;;3.95;;
72941;SDS011;69665;55.822;37.330;2023-07-02T15:16:57;7.82;;;3.83;;
72941;SDS011;69665;55.822;37.330;2023-07-02T15:19:41;8.48;;;4.53;;
72941;SDS011;69665;55.822;37.330;2023-07-02T15:22:29;8.88;;;4.07;;
72941;SDS011;69665;55.822;37.330;2023-07-02T15:25:14;7.72;;;3.50;;
72941;SDS011;69665;55.822;37.330;2023-07-02T15:31:05;9.13;;;3.75;;
72941;SDS011;69665;55.822;37.330;2023-07-02T15:33:50;9.48;;;4.50;;
72941;SDS011;69665;55.822;37.330;2023-07-02T15:36:35;8.52;;;4.43;;
72941;SDS011;69665;55.822;37.330;2023-07-02T15:39:22;7.85;;;4.45;;
72941;SDS011;69665;55.822;37.330;2023-07-02T15:42:08;10.07;;;4.32;;
72941;SDS011;69665;55.822;37.330;2023-07-02T15:45:11;9.40;;;4.38;;
72941;SDS011;69665;55.822;37.330;2023-07-02T15:47:55;9.07;;;4.55;;
72941;SDS011;69665;55.822;37.330;2023-07-02T15:50:49;7.53;;;4.30;;
72941;SDS011;69665;55.822;37.330;2023-07-02T15:53:33;9.25;;;4.07;;
72941;SDS011;69665;55.822;37.330;2023-07-02T15:56:19;8.10;;;4.22;;
72941;SDS011;69665;55.822;37.330;2023-07-02T16:02:08;10.27;;;4.53;;
72941;SDS011;69665;55.822;37.330;2023-07-02T16:04:54;8.52;;;4.45;;
72941;SDS011;69665;55.822;37.330;2023-07-02T16:07:38;7.53;;;3.97;;
72941;SDS011;69665;55.822;37.330;2023-07-02T16:10:22;11.23;;;5.35;;
72941;SDS011;69665;55.822;37.330;2023-07-02T16:13:09;9.60;;;4.82;;
72941;SDS011;69665;55.822;37.330;2023-07-02T16:15:54;9.50;;;4.13;;
72941;SDS011;69665;55.822;37.330;2023-07-02T16:18:39;8.85;;;4.25;;
72941;SDS011;69665;55.822;37.330;2023-07-02T16:21:23;9.60;;;4.47;;
72941;SDS011;69665;55.822;37.330;2023-07-02T16:24:18;11.60;;;4.93;;
72941;SDS011;69665;55.822;37.330;2023-07-02T16:27:07;7.80;;;4.30;;
72941;SDS011;69665;55.822;37.330;2023-07-02T16:29:57;10.00;;;4.90;;
72941;SDS011;69665;55.822;37.330;2023-07-02T16:32:41;11.90;;;4.75;;
72941;SDS011;69665;55.822;37.330;2023-07-02T16:35:26;8.60;;;4.60;;
72941;SDS011;69665;55.822;37.330;2023-07-02T16:38:10;10.45;;;5.90;;
72941;SDS011;69665;55.822;37.330;2023-07-02T16:40:54;9.90;;;5.07;;
72941;SDS011;69665;55.822;37.330;2023-07-02T16:43:59;10.20;;;5.55;;
72941;SDS011;69665;55.822;37.330;2023-07-02T16:46:44;9.88;;;4.63;;
72941;SDS011;69665;55.822;37.330;2023-07-02T16:49:29;10.25;;;4.45;;